createdAt,value
2023-08-10T00:00:31.945Z,8.07
2023-08-10T00:03:00.361Z,5.57
2023-08-10T00:05:28.685Z,4.67
2023-08-10T00:07:56.773Z,4.03
2023-08-10T00:10:25.022Z,4.30
2023-08-10T00:12:53.117Z,4.13
2023-08-10T00:15:22.756Z,5.50
2023-08-10T00:17:51.268Z,6.20
2023-08-10T00:20:19.546Z,7.20
2023-08-10T00:22:47.618Z,8.70
2023-08-10T00:25:15.827Z,4.43
2023-08-10T00:27:43.936Z,5.60
2023-08-10T00:30:12.402Z,6.73
2023-08-10T00:32:42.900Z,8.03
2023-08-10T00:35:11.578Z,7.53
2023-08-10T00:37:39.802Z,4.80
2023-08-10T00:40:10.383Z,4.87
2023-08-10T00:42:38.736Z,4.57
2023-08-10T00:45:07.940Z,4.87
2023-08-10T00:47:36.153Z,5.73
2023-08-10T00:50:06.622Z,6.03
2023-08-10T00:52:35.491Z,4.80
2023-08-10T00:55:03.647Z,5.33
2023-08-10T00:57:32.437Z,7.33
2023-08-10T01:00:01.322Z,5.33
2023-08-10T01:02:30.125Z,6.27
2023-08-10T01:04:58.397Z,7.00
2023-08-10T01:07:36.709Z,9.27
2023-08-10T01:10:12.800Z,7.03
2023-08-10T01:12:47.018Z,5.20
2023-08-10T01:15:19.396Z,5.77
2023-08-10T01:17:53.396Z,6.57
2023-08-10T01:20:23.030Z,5.53
2023-08-10T01:22:57.546Z,5.97
2023-08-10T01:25:27.919Z,8.10
2023-08-10T01:27:56.824Z,7.27
2023-08-10T01:30:25.782Z,5.63
2023-08-10T01:32:54.153Z,5.70
2023-08-10T01:35:22.571Z,6.23
2023-08-10T01:37:50.593Z,5.97
2023-08-10T01:40:18.783Z,8.80
2023-08-10T01:42:48.207Z,9.20
2023-08-10T01:45:16.477Z,8.57
2023-08-10T01:47:54.180Z,6.30
2023-08-10T01:50:23.762Z,7.33
2023-08-10T01:52:56.254Z,9.33
2023-08-10T01:55:24.902Z,8.40
2023-08-10T01:57:54.435Z,6.70
2023-08-10T02:00:22.593Z,6.50
2023-08-10T02:02:50.784Z,6.77
2023-08-10T02:05:18.972Z,6.37
2023-08-10T02:07:50.315Z,9.17
2023-08-10T02:10:19.051Z,7.50
2023-08-10T02:12:47.100Z,7.20
2023-08-10T02:15:16.858Z,7.37
2023-08-10T02:17:46.079Z,8.53
2023-08-10T02:20:14.856Z,7.27
2023-08-10T02:22:48.358Z,12.07
2023-08-10T02:25:16.939Z,8.17
2023-08-10T02:27:45.427Z,7.87
2023-08-10T02:30:14.224Z,6.13
2023-08-10T02:32:43.788Z,7.17
2023-08-10T02:35:12.009Z,9.57
2023-08-10T02:37:40.296Z,7.77
2023-08-10T02:40:11.374Z,7.50
2023-08-10T02:42:40.452Z,9.43
2023-08-10T02:45:09.835Z,6.40
2023-08-10T02:47:38.016Z,8.43
2023-08-10T02:50:08.705Z,7.80
2023-08-10T02:52:38.864Z,7.50
2023-08-10T02:55:08.291Z,7.60
2023-08-10T02:57:36.772Z,10.17
2023-08-10T03:00:07.815Z,7.40
2023-08-10T03:02:36.206Z,7.23
2023-08-10T03:05:10.406Z,9.00
2023-08-10T03:07:38.567Z,8.20
2023-08-10T03:10:10.757Z,9.23
2023-08-10T03:12:40.514Z,10.70
2023-08-10T03:15:12.742Z,9.63
2023-08-10T03:17:42.110Z,10.90
2023-08-10T03:20:17.862Z,7.90
2023-08-10T03:22:47.604Z,8.43
2023-08-10T03:25:16.711Z,9.60
2023-08-10T03:27:45.670Z,8.80
2023-08-10T03:30:16.990Z,9.37
2023-08-10T03:32:45.300Z,9.50
2023-08-10T03:35:16.193Z,11.13
2023-08-10T03:37:44.387Z,9.57
2023-08-10T03:40:13.509Z,10.00
2023-08-10T03:42:42.079Z,9.67
2023-08-10T03:45:12.062Z,10.43
2023-08-10T03:47:40.254Z,9.73
2023-08-10T03:50:09.497Z,8.90
2023-08-10T03:52:38.898Z,9.47
2023-08-10T03:55:08.008Z,10.33
2023-08-10T03:57:36.061Z,9.43
2023-08-10T04:00:05.261Z,10.73
2023-08-10T04:02:45.211Z,11.07
2023-08-10T04:05:19.129Z,15.93
2023-08-10T04:07:49.004Z,10.73
2023-08-10T04:10:17.240Z,10.53
2023-08-10T04:12:45.871Z,10.27
2023-08-10T04:15:14.121Z,12.60
2023-08-10T04:17:42.720Z,11.10
2023-08-10T04:20:11.721Z,10.30
2023-08-10T04:22:39.989Z,10.93
2023-08-10T04:25:09.918Z,11.73
2023-08-10T04:27:38.412Z,10.77
2023-08-10T04:30:09.944Z,11.03
2023-08-10T04:32:38.388Z,10.50
2023-08-10T04:35:07.260Z,10.43
2023-08-10T04:37:36.060Z,9.97
2023-08-10T04:40:08.911Z,10.47
2023-08-10T04:42:41.176Z,10.73
2023-08-10T04:45:11.526Z,11.80
2023-08-10T04:47:40.165Z,10.40
2023-08-10T04:50:09.205Z,11.33
2023-08-10T04:52:37.720Z,11.30
2023-08-10T04:55:06.443Z,11.17
2023-08-10T04:57:34.582Z,11.30
2023-08-10T05:00:10.202Z,13.00
2023-08-10T05:02:39.438Z,10.73
2023-08-10T05:05:09.151Z,19.93
2023-08-10T05:07:38.395Z,10.33
2023-08-10T05:10:09.244Z,11.30
2023-08-10T05:12:39.439Z,11.20
2023-08-10T05:15:11.285Z,10.63
2023-08-10T05:17:40.329Z,11.63
2023-08-10T05:20:12.008Z,11.67
2023-08-10T05:22:41.753Z,11.80
2023-08-10T05:25:10.639Z,11.53
2023-08-10T05:27:39.534Z,10.67
2023-08-10T05:30:13.251Z,11.33
2023-08-10T05:32:45.225Z,10.43
2023-08-10T05:35:14.056Z,10.10
2023-08-10T05:37:42.180Z,10.37
2023-08-10T05:40:13.014Z,11.07
2023-08-10T05:42:43.016Z,9.23
2023-08-10T05:45:16.855Z,9.03
2023-08-10T05:47:46.650Z,8.43
2023-08-10T05:50:15.144Z,9.13
2023-08-10T05:52:43.921Z,8.23
2023-08-10T05:55:12.401Z,10.73
2023-08-10T05:57:40.754Z,10.33
2023-08-10T06:00:10.985Z,10.70
2023-08-10T06:02:44.135Z,8.97
2023-08-10T06:05:13.907Z,10.17
2023-08-10T06:07:42.257Z,9.33
2023-08-10T06:10:10.786Z,9.87
2023-08-10T06:12:39.010Z,12.23
2023-08-10T06:15:07.869Z,11.77
2023-08-10T06:17:35.998Z,7.40
2023-08-10T06:20:10.857Z,11.00
2023-08-10T06:22:40.373Z,12.40
2023-08-10T06:25:09.593Z,6.90
2023-08-10T06:27:38.517Z,11.80
2023-08-10T06:30:08.098Z,7.60
2023-08-10T06:32:36.738Z,58.13
2023-08-10T06:35:06.967Z,10.93
2023-08-10T06:37:35.049Z,6.13
2023-08-10T06:40:08.147Z,8.73
2023-08-10T06:42:36.428Z,6.10
2023-08-10T06:45:11.636Z,6.67
2023-08-10T06:47:39.995Z,7.53
2023-08-10T06:50:10.199Z,5.70
2023-08-10T06:52:38.407Z,4.10
2023-08-10T06:55:07.507Z,5.93
2023-08-10T06:57:37.249Z,8.43
2023-08-10T07:02:39.448Z,4.27
2023-08-10T07:05:11.425Z,215.90
2023-08-10T07:07:39.572Z,496.33
2023-08-10T07:10:10.304Z,711.83
2023-08-10T07:12:38.398Z,913.90
2023-08-10T07:15:09.534Z,994.80
2023-08-10T07:17:38.162Z,1074.97
2023-08-10T07:20:07.485Z,1134.97
2023-08-10T07:22:40.475Z,1172.33
2023-08-10T07:25:09.452Z,1172.47
2023-08-10T07:27:38.007Z,1178.43
2023-08-10T07:30:07.337Z,1561.00
2023-08-10T07:32:35.421Z,1655.73
2023-08-10T07:35:03.921Z,1883.43
2023-08-10T07:37:32.142Z,1999.90
2023-08-10T07:40:01.656Z,1999.90
2023-08-10T07:42:29.724Z,1999.90
2023-08-10T07:44:57.812Z,1999.90
2023-08-10T07:47:25.966Z,1999.90
2023-08-10T07:49:54.373Z,1999.90
2023-08-10T07:52:22.437Z,1999.90
2023-08-10T07:54:50.483Z,1999.90
2023-08-10T07:57:19.866Z,1999.90
2023-08-10T07:59:48.361Z,1981.80
2023-08-10T08:02:16.496Z,1612.07
2023-08-10T08:04:44.621Z,1467.30
2023-08-10T08:07:12.922Z,1370.53
2023-08-10T08:09:41.220Z,1183.50
2023-08-10T08:12:09.253Z,1296.10
2023-08-10T08:14:38.718Z,1012.10
2023-08-10T08:17:06.977Z,868.80
2023-08-10T08:19:37.377Z,892.80
2023-08-10T08:22:05.879Z,978.47
2023-08-10T08:24:34.250Z,903.47
2023-08-10T08:27:02.389Z,851.23
2023-08-10T08:29:30.553Z,913.80
2023-08-10T08:32:00.335Z,687.33
2023-08-10T08:34:28.473Z,863.37
2023-08-10T08:36:56.516Z,1044.27
2023-08-10T08:39:24.598Z,983.57
2023-08-10T08:41:53.035Z,958.03
2023-08-10T08:44:21.483Z,863.23
2023-08-10T08:46:50.765Z,619.90
2023-08-10T08:49:20.712Z,434.93
2023-08-10T08:51:49.666Z,429.00
2023-08-10T08:54:19.383Z,504.03
2023-08-10T08:56:47.446Z,268.23
2023-08-10T08:59:15.572Z,232.77
2023-08-10T09:01:43.919Z,238.00
2023-08-10T09:04:12.279Z,261.80
2023-08-10T09:06:41.926Z,278.17
2023-08-10T09:09:10.064Z,405.17
2023-08-10T09:11:38.078Z,261.13
2023-08-10T09:14:10.117Z,286.33
2023-08-10T09:16:40.116Z,302.83
2023-08-10T09:19:13.284Z,262.23
2023-08-10T09:21:42.824Z,108.93
2023-08-10T09:24:12.040Z,163.13
2023-08-10T09:26:42.166Z,172.67
2023-08-10T09:29:10.440Z,149.23
2023-08-10T09:31:44.131Z,154.87
2023-08-10T09:34:14.857Z,84.70
2023-08-10T09:36:54.776Z,107.37
2023-08-10T09:39:22.840Z,151.23
2023-08-10T09:41:56.329Z,126.33
2023-08-10T09:44:24.471Z,131.57
2023-08-10T09:46:59.214Z,83.47
2023-08-10T09:49:27.355Z,96.30
2023-08-10T09:52:00.051Z,140.03
2023-08-10T09:54:28.990Z,116.33
2023-08-10T09:56:58.160Z,109.17
2023-08-10T09:59:26.665Z,113.53
2023-08-10T10:01:55.182Z,105.47
2023-08-10T10:04:24.727Z,186.47
2023-08-10T10:06:54.599Z,175.77
2023-08-10T10:09:25.859Z,144.47
2023-08-10T10:11:55.598Z,184.40
2023-08-10T10:14:23.743Z,173.17
2023-08-10T10:16:53.549Z,250.57
2023-08-10T10:19:21.983Z,272.60
2023-08-10T10:21:50.937Z,215.73
2023-08-10T10:24:20.598Z,188.13
2023-08-10T10:27:01.535Z,276.00
2023-08-10T10:29:41.345Z,156.73
2023-08-10T10:32:15.178Z,169.47
2023-08-10T10:34:44.318Z,136.43
2023-08-10T10:37:15.826Z,819.30
2023-08-10T10:39:45.852Z,973.30
2023-08-10T10:42:19.484Z,821.70
2023-08-10T10:45:01.649Z,995.40
2023-08-10T10:47:37.878Z,926.57
2023-08-10T10:50:17.114Z,992.13
2023-08-10T10:52:55.299Z,863.80
2023-08-10T10:55:24.517Z,935.97
2023-08-10T10:57:54.553Z,1066.23
2023-08-10T11:00:25.236Z,1047.70
2023-08-10T11:02:54.025Z,1057.20
2023-08-10T11:05:22.479Z,1041.53
2023-08-10T11:07:51.962Z,1073.03
2023-08-10T11:10:22.913Z,1076.40
2023-08-10T11:12:55.296Z,1094.33
2023-08-10T11:15:24.112Z,1008.70
2023-08-10T11:17:55.741Z,904.07
2023-08-10T11:20:24.356Z,1026.70
2023-08-10T11:22:53.808Z,1048.23
2023-08-10T11:25:24.135Z,946.23
2023-08-10T11:27:57.672Z,937.23
2023-08-10T11:30:26.653Z,841.17
2023-08-10T11:32:56.327Z,1016.80
2023-08-10T11:35:26.340Z,834.27
2023-08-10T11:37:55.261Z,846.03
2023-08-10T11:40:24.865Z,818.17
2023-08-10T11:43:05.844Z,846.60
2023-08-10T11:45:34.393Z,838.37
2023-08-10T11:48:04.533Z,945.80
2023-08-10T11:50:33.566Z,924.00
2023-08-10T11:53:11.937Z,1021.73
2023-08-10T11:55:44.526Z,730.73
2023-08-10T11:58:16.807Z,875.27
2023-08-10T12:00:50.633Z,1020.80
2023-08-10T12:03:24.465Z,878.37
2023-08-10T12:05:56.065Z,900.00
2023-08-10T12:08:27.403Z,1000.87
2023-08-10T12:11:02.430Z,945.57
2023-08-10T12:13:32.764Z,914.30
2023-08-10T12:16:04.623Z,1004.63
2023-08-10T12:18:32.938Z,921.33
2023-08-10T12:21:01.171Z,981.73
2023-08-10T12:23:29.320Z,988.80
2023-08-10T12:25:57.326Z,1049.63
2023-08-10T12:28:26.541Z,1084.97
2023-08-10T12:30:56.028Z,1024.87
2023-08-10T12:33:24.801Z,1102.10
2023-08-10T12:35:53.358Z,1077.63
2023-08-10T12:38:21.588Z,997.83
2023-08-10T12:40:49.722Z,1002.97
2023-08-10T12:43:17.811Z,977.60
2023-08-10T12:45:46.908Z,1021.17
2023-08-10T12:48:16.388Z,1108.93
2023-08-10T12:50:44.507Z,1041.80
2023-08-10T12:53:12.712Z,1053.20
2023-08-10T12:55:40.832Z,1026.00
2023-08-10T12:58:12.484Z,1027.70
2023-08-10T13:00:40.594Z,961.27
2023-08-10T13:03:09.273Z,1052.00
2023-08-10T13:05:38.890Z,1049.37
2023-08-10T13:08:07.491Z,1036.20
2023-08-10T13:10:35.691Z,993.10
2023-08-10T13:13:04.103Z,1022.57
2023-08-10T13:15:32.274Z,931.47
2023-08-10T13:18:00.355Z,938.53
2023-08-10T13:20:28.637Z,891.80
2023-08-10T13:22:58.162Z,886.43
2023-08-10T13:25:26.234Z,968.57
2023-08-10T13:27:54.279Z,948.07
2023-08-10T13:30:22.359Z,957.80
2023-08-10T13:32:50.477Z,900.40
2023-08-10T13:35:18.797Z,862.90
2023-08-10T13:37:46.859Z,969.67
2023-08-10T13:40:16.318Z,975.43
2023-08-10T13:42:44.567Z,950.87
2023-08-10T13:45:12.743Z,940.43
2023-08-10T13:47:40.891Z,930.73
2023-08-10T13:50:10.486Z,915.87
2023-08-10T13:52:38.510Z,955.87
2023-08-10T13:55:08.182Z,962.17
2023-08-10T13:57:37.634Z,923.87
2023-08-10T14:00:09.064Z,969.80
2023-08-10T14:02:37.734Z,956.03
2023-08-10T14:05:07.131Z,979.00
2023-08-10T14:07:35.262Z,1017.90
2023-08-10T14:10:03.302Z,996.73
2023-08-10T14:12:31.300Z,1013.97
2023-08-10T14:15:00.804Z,992.83
2023-08-10T14:17:28.973Z,1017.70
2023-08-10T14:19:57.081Z,1057.17
2023-08-10T14:22:25.136Z,1106.87
2023-08-10T14:24:53.454Z,994.13
2023-08-10T14:27:24.364Z,1004.73
2023-08-10T14:29:52.667Z,998.73
2023-08-10T14:32:22.545Z,1021.03
2023-08-10T14:34:51.240Z,1074.97
2023-08-10T14:37:19.313Z,1023.27
2023-08-10T14:39:47.348Z,974.27
2023-08-10T14:42:15.462Z,857.70
2023-08-10T14:44:43.526Z,930.67
2023-08-10T14:47:11.808Z,908.53
2023-08-10T14:49:41.491Z,913.20
2023-08-10T14:52:09.581Z,886.77
2023-08-10T14:54:37.621Z,1006.10
2023-08-10T14:57:05.848Z,941.10
2023-08-10T14:59:33.907Z,952.93
2023-08-10T15:02:02.102Z,987.57
2023-08-10T15:04:30.262Z,1006.47
2023-08-10T15:06:59.704Z,1042.87
2023-08-10T15:09:27.767Z,999.70
2023-08-10T15:11:56.023Z,958.33
2023-08-10T15:14:24.103Z,1010.07
2023-08-10T15:16:52.202Z,979.43
2023-08-10T15:19:20.247Z,974.07
2023-08-10T15:21:48.262Z,1044.60
2023-08-10T15:24:17.686Z,1001.23
2023-08-10T15:26:45.812Z,1020.70
2023-08-10T15:29:13.855Z,918.97
2023-08-10T15:31:42.077Z,846.67
2023-08-10T15:34:10.190Z,842.00
2023-08-10T15:36:38.301Z,934.93
2023-08-10T15:39:06.610Z,934.83
2023-08-10T15:41:36.027Z,1007.53
2023-08-10T15:44:04.150Z,1028.00
2023-08-10T15:46:32.238Z,1000.47
2023-08-10T15:49:00.305Z,937.37
2023-08-10T15:51:28.459Z,1013.43
2023-08-10T15:53:56.774Z,1042.17
2023-08-10T15:56:25.036Z,1001.10
2023-08-10T15:58:55.523Z,992.17
2023-08-10T16:01:25.442Z,1010.83
2023-08-10T16:03:53.717Z,1052.77
2023-08-10T16:06:21.836Z,1092.70
2023-08-10T16:08:49.874Z,997.97
2023-08-10T16:11:19.044Z,1019.27
2023-08-10T16:13:47.125Z,1073.57
2023-08-10T16:16:16.661Z,1005.50
2023-08-10T16:18:44.820Z,943.07
2023-08-10T16:21:13.335Z,1023.90
2023-08-10T16:23:41.647Z,983.63
2023-08-10T16:26:09.765Z,967.87
2023-08-10T16:28:38.008Z,958.23
2023-08-10T16:31:07.615Z,964.87
2023-08-10T16:33:37.143Z,937.83
2023-08-10T16:36:05.843Z,937.03
2023-08-10T16:38:34.243Z,898.60
2023-08-10T16:41:02.416Z,964.03
2023-08-10T16:43:30.444Z,925.27
2023-08-10T16:45:58.532Z,902.23
2023-08-10T16:48:26.608Z,683.90
2023-08-10T16:50:56.193Z,670.03
2023-08-10T16:53:24.982Z,555.70
2023-08-10T16:55:56.491Z,548.90
2023-08-10T16:58:24.934Z,522.40
2023-08-10T17:00:53.029Z,505.37
2023-08-10T17:03:21.254Z,476.07
2023-08-10T17:05:49.456Z,445.13
2023-08-10T17:08:20.201Z,381.57
2023-08-10T17:10:48.258Z,330.53
2023-08-10T17:13:16.343Z,367.73
2023-08-10T17:15:44.513Z,356.83
2023-08-10T17:18:12.621Z,363.37
2023-08-10T17:20:40.759Z,542.00
2023-08-10T17:23:08.985Z,252.37
2023-08-10T17:25:38.407Z,274.77
2023-08-10T17:28:08.670Z,282.53
2023-08-10T17:30:36.945Z,236.93
2023-08-10T17:33:05.383Z,160.13
2023-08-10T17:35:33.550Z,181.53
2023-08-10T17:38:01.651Z,173.27
2023-08-10T17:40:29.689Z,223.27
2023-08-10T17:42:59.166Z,178.93
2023-08-10T17:45:27.268Z,205.07
2023-08-10T17:47:55.362Z,189.33
2023-08-10T17:50:23.501Z,183.50
2023-08-10T17:52:51.783Z,172.77
2023-08-10T17:55:20.400Z,116.10
2023-08-10T17:57:50.249Z,159.37
2023-08-10T18:00:20.945Z,146.53
2023-08-10T18:02:53.842Z,130.97
2023-08-10T18:05:21.943Z,120.03
2023-08-10T18:07:50.128Z,70.70
2023-08-10T18:10:18.361Z,111.70
2023-08-10T18:12:46.416Z,76.63
2023-08-10T18:15:14.510Z,69.87
2023-08-10T18:17:43.932Z,75.40
2023-08-10T18:20:12.917Z,101.20
2023-08-10T18:22:40.968Z,73.03
2023-08-10T18:25:09.629Z,79.23
2023-08-10T18:27:37.878Z,71.93
2023-08-10T18:30:06.644Z,48.27
2023-08-10T18:32:34.853Z,55.93
2023-08-10T18:35:04.547Z,46.70
2023-08-10T18:37:32.624Z,32.70
2023-08-10T18:40:00.686Z,36.10
2023-08-10T18:42:28.758Z,33.23
2023-08-10T18:44:56.856Z,34.83
2023-08-10T18:47:25.070Z,31.10
2023-08-10T18:49:53.676Z,31.03
2023-08-10T18:52:23.208Z,28.37
2023-08-10T18:54:51.313Z,29.90
2023-08-10T18:57:19.356Z,24.70
2023-08-10T18:59:47.495Z,26.67
2023-08-10T19:02:15.766Z,22.57
2023-08-10T19:04:43.964Z,26.13
2023-08-10T19:07:13.655Z,16.97
2023-08-10T19:09:43.175Z,23.97
2023-08-10T19:12:11.387Z,22.17
2023-08-10T19:14:40.695Z,34.33
2023-08-10T19:17:09.187Z,12.97
2023-08-10T19:19:37.314Z,30.03
2023-08-10T19:22:05.792Z,63.30
2023-08-10T19:24:34.108Z,64.37
2023-08-10T19:27:03.572Z,59.37
2023-08-10T19:29:31.672Z,55.10
2023-08-10T19:31:59.773Z,56.13
2023-08-10T19:34:27.833Z,48.07
2023-08-10T19:36:56.321Z,51.63
2023-08-10T19:39:24.592Z,56.57
2023-08-10T19:41:52.962Z,54.83
2023-08-10T19:44:22.362Z,57.87
2023-08-10T19:46:50.408Z,54.27
2023-08-10T19:49:18.812Z,65.77
2023-08-10T19:51:47.287Z,66.13
2023-08-10T19:54:15.332Z,24.00
2023-08-10T19:56:43.373Z,59.13
2023-08-10T19:59:11.584Z,65.43
2023-08-10T20:01:41.105Z,58.10
2023-08-10T20:04:09.466Z,66.70
2023-08-10T20:06:37.586Z,62.33
2023-08-10T20:09:05.917Z,69.30
2023-08-10T20:11:33.997Z,64.87
2023-08-10T20:14:02.049Z,73.33
2023-08-10T20:16:30.172Z,30.87
2023-08-10T20:18:59.652Z,39.97
2023-08-10T20:21:27.753Z,69.87
2023-08-10T20:23:55.843Z,65.47
2023-08-10T20:26:25.459Z,60.97
2023-08-10T20:28:53.565Z,60.13
2023-08-10T20:31:23.109Z,60.57
2023-08-10T20:33:52.307Z,56.93
2023-08-10T20:36:21.948Z,62.70
2023-08-10T20:38:50.021Z,62.87
2023-08-10T20:41:18.606Z,62.23
2023-08-10T20:43:46.732Z,67.80
2023-08-10T20:46:22.665Z,58.63
2023-08-10T20:48:53.309Z,60.33
2023-08-10T20:51:23.123Z,65.17
2023-08-10T20:53:53.145Z,57.70
2023-08-10T20:56:22.032Z,56.10
2023-08-10T20:58:52.263Z,51.07
2023-08-10T21:01:21.240Z,50.17
2023-08-10T21:03:52.119Z,48.10
2023-08-10T21:06:23.221Z,55.77
2023-08-10T21:08:51.427Z,41.80
2023-08-10T21:11:19.505Z,43.23
2023-08-10T21:13:49.742Z,40.17
2023-08-10T21:16:18.253Z,34.27
2023-08-10T21:18:47.626Z,40.93
2023-08-10T21:21:15.762Z,36.43
2023-08-10T21:23:45.204Z,38.60
2023-08-10T21:26:13.280Z,37.70
2023-08-10T21:28:41.338Z,32.43
2023-08-10T21:31:09.441Z,35.83
2023-08-10T21:33:37.614Z,32.17
2023-08-10T21:36:06.238Z,35.37
2023-08-10T21:38:34.413Z,34.33
2023-08-10T21:41:03.881Z,24.70
2023-08-10T21:43:32.226Z,33.00
2023-08-10T21:46:00.370Z,29.00
2023-08-10T21:48:28.682Z,30.23
2023-08-10T21:50:56.787Z,29.73
2023-08-10T21:53:24.914Z,28.20
2023-08-10T21:55:53.042Z,36.13
2023-08-10T21:58:22.635Z,33.50
2023-08-10T22:00:50.796Z,28.90
2023-08-10T22:03:18.898Z,29.13
2023-08-10T22:05:48.572Z,28.03
2023-08-10T22:08:17.263Z,29.37
2023-08-10T22:10:45.456Z,28.73
2023-08-10T22:13:13.602Z,29.33
2023-08-10T22:15:43.085Z,27.43
2023-08-10T22:18:12.117Z,28.10
2023-08-10T22:20:40.929Z,25.87
2023-08-10T22:23:09.200Z,29.17
2023-08-10T22:25:37.540Z,28.13
2023-08-10T22:28:06.207Z,23.83
2023-08-10T22:30:35.569Z,25.33
2023-08-10T22:33:05.829Z,24.73
2023-08-10T22:35:33.998Z,27.00
2023-08-10T22:38:02.429Z,29.63
2023-08-10T22:40:31.059Z,24.03
2023-08-10T22:42:59.868Z,27.27
2023-08-10T22:45:27.948Z,26.70
2023-08-10T22:47:56.222Z,26.57
2023-08-10T22:50:26.824Z,30.47
2023-08-10T22:52:55.012Z,32.40
2023-08-10T22:55:23.112Z,22.73
2023-08-10T22:57:51.244Z,23.13
2023-08-10T23:00:19.678Z,23.60
2023-08-10T23:02:47.855Z,22.73
2023-08-10T23:05:16.070Z,21.23
2023-08-10T23:07:45.563Z,18.97
2023-08-10T23:10:13.637Z,22.97
2023-08-10T23:12:41.952Z,19.30
2023-08-10T23:15:11.115Z,21.60
2023-08-10T23:17:39.244Z,23.20
2023-08-10T23:20:12.803Z,22.63
2023-08-10T23:22:42.029Z,19.13
2023-08-10T23:25:14.104Z,18.30
2023-08-10T23:27:43.766Z,20.07
2023-08-10T23:30:13.345Z,17.60
2023-08-10T23:32:41.612Z,18.97
2023-08-10T23:35:11.353Z,12.73
2023-08-10T23:37:40.062Z,16.80
2023-08-10T23:40:11.472Z,17.67
2023-08-10T23:42:43.115Z,17.57
2023-08-10T23:45:13.423Z,15.57
2023-08-10T23:47:41.691Z,19.33
2023-08-10T23:50:10.931Z,17.03
2023-08-10T23:52:44.021Z,18.70
2023-08-10T23:55:12.307Z,19.63
2023-08-10T23:57:42.035Z,19.07
